createdAt,value
2019-02-28T00:00:11.168Z,14.68
2019-02-28T00:01:20.984Z,14.40
2019-02-28T00:02:28.391Z,13.95
2019-02-28T00:03:32.508Z,13.85
2019-02-28T00:04:36.603Z,13.88
2019-02-28T00:05:40.747Z,13.40
2019-02-28T00:06:45.201Z,13.90
2019-02-28T00:07:49.778Z,13.60
2019-02-28T00:08:54.734Z,12.78
2019-02-28T00:09:58.919Z,12.80
2019-02-28T00:11:05.021Z,12.15
2019-02-28T00:12:10.216Z,14.28
2019-02-28T00:13:14.702Z,13.55
2019-02-28T00:14:18.811Z,13.30
2019-02-28T00:15:22.989Z,13.72
2019-02-28T00:16:27.087Z,12.75
2019-02-28T00:17:31.479Z,13.58
2019-02-28T00:18:35.615Z,13.55
2019-02-28T00:19:40.195Z,13.65
2019-02-28T00:20:44.325Z,13.18
2019-02-28T00:21:48.475Z,13.22
2019-02-28T00:22:52.687Z,13.65
2019-02-28T00:23:57.524Z,13.93
2019-02-28T00:25:04.382Z,13.43
2019-02-28T00:26:11.392Z,14.13
2019-02-28T00:27:13.356Z,12.45
2019-02-28T00:28:17.778Z,13.15
2019-02-28T00:29:22.004Z,13.43
2019-02-28T00:30:26.845Z,13.45
2019-02-28T00:31:31.312Z,13.22
2019-02-28T00:32:35.706Z,12.75
2019-02-28T00:33:39.867Z,12.80
2019-02-28T00:34:44.355Z,12.70
2019-02-28T00:35:48.725Z,13.00
2019-02-28T00:36:53.443Z,12.93
2019-02-28T00:37:58.230Z,13.05
2019-02-28T00:39:04.102Z,11.90
2019-02-28T00:40:08.639Z,12.73
2019-02-28T00:41:12.745Z,12.33
2019-02-28T00:42:17.684Z,11.73
2019-02-28T00:43:25.123Z,12.47
2019-02-28T00:44:31.231Z,12.58
2019-02-28T00:45:37.123Z,12.55
2019-02-28T00:46:43.988Z,12.85
2019-02-28T00:47:47.444Z,12.23
2019-02-28T00:48:52.966Z,11.85
2019-02-28T00:49:57.399Z,11.88
2019-02-28T00:51:01.642Z,12.75
2019-02-28T00:52:05.785Z,12.03
2019-02-28T00:53:09.983Z,13.08
2019-02-28T00:54:14.365Z,11.68
2019-02-28T00:55:18.522Z,12.80
2019-02-28T00:56:22.625Z,12.78
2019-02-28T00:57:26.835Z,12.45
2019-02-28T00:58:31.202Z,12.05
2019-02-28T00:59:38.733Z,12.23
2019-02-28T01:00:42.880Z,12.70
2019-02-28T01:01:47.365Z,12.45
2019-02-28T01:02:53.458Z,11.90
2019-02-28T01:03:57.990Z,11.35
2019-02-28T01:05:04.979Z,11.93
2019-02-28T01:06:10.671Z,11.53
2019-02-28T01:07:16.283Z,11.65
2019-02-28T01:08:22.140Z,10.98
2019-02-28T01:09:27.156Z,11.45
2019-02-28T01:10:38.830Z,11.65
2019-02-28T01:11:38.810Z,11.10
2019-02-28T01:12:42.966Z,12.88
2019-02-28T01:13:47.063Z,11.70
2019-02-28T01:14:51.575Z,11.70
2019-02-28T01:15:55.712Z,12.07
2019-02-28T01:16:59.885Z,11.95
2019-02-28T01:18:03.958Z,11.57
2019-02-28T01:19:09.073Z,12.80
2019-02-28T01:20:16.030Z,11.45
2019-02-28T01:21:23.667Z,11.70
2019-02-28T01:22:26.987Z,11.80
2019-02-28T01:23:32.194Z,11.43
2019-02-28T01:24:36.307Z,11.55
2019-02-28T01:25:40.940Z,11.50
2019-02-28T01:26:46.768Z,11.10
2019-02-28T01:27:52.420Z,11.65
2019-02-28T01:29:01.480Z,11.08
2019-02-28T01:30:02.750Z,11.68
2019-02-28T01:31:06.868Z,11.73
2019-02-28T01:32:15.297Z,11.73
2019-02-28T01:33:16.799Z,11.33
2019-02-28T01:34:20.907Z,11.57
2019-02-28T01:35:25.376Z,11.63
2019-02-28T01:36:29.532Z,10.98
2019-02-28T01:37:33.664Z,11.70
2019-02-28T01:38:37.782Z,11.00
2019-02-28T01:39:41.979Z,11.53
2019-02-28T01:40:46.167Z,9.95
2019-02-28T01:41:50.256Z,11.48
2019-02-28T01:42:55.128Z,11.80
2019-02-28T01:44:01.698Z,10.72
2019-02-28T01:45:06.997Z,10.88
2019-02-28T01:46:11.180Z,11.00
2019-02-28T01:47:15.394Z,11.05
2019-02-28T01:48:22.599Z,10.98
2019-02-28T01:49:26.887Z,10.93
2019-02-28T01:50:31.111Z,11.03
2019-02-28T01:51:36.589Z,10.98
2019-02-28T01:52:44.521Z,11.38
2019-02-28T01:53:46.754Z,10.43
2019-02-28T01:54:50.887Z,10.75
2019-02-28T01:55:54.997Z,10.90
2019-02-28T01:56:59.187Z,11.03
2019-02-28T01:58:03.283Z,12.28
2019-02-28T01:59:07.366Z,11.93
2019-02-28T02:00:13.192Z,11.80
2019-02-28T02:01:17.341Z,10.78
2019-02-28T02:02:21.513Z,10.90
2019-02-28T02:03:25.631Z,11.73
2019-02-28T02:04:29.733Z,10.72
2019-02-28T02:05:34.192Z,11.70
2019-02-28T02:06:38.546Z,11.60
2019-02-28T02:07:42.670Z,10.93
2019-02-28T02:08:46.778Z,11.35
2019-02-28T02:09:51.180Z,11.22
2019-02-28T02:10:56.162Z,11.38
2019-02-28T02:12:00.322Z,10.35
2019-02-28T02:13:04.522Z,11.08
2019-02-28T02:14:11.076Z,11.38
2019-02-28T02:15:16.885Z,10.85
2019-02-28T02:16:20.380Z,10.90
2019-02-28T02:17:24.495Z,11.83
2019-02-28T02:18:28.627Z,11.03
2019-02-28T02:19:32.719Z,11.90
2019-02-28T02:20:36.867Z,10.53
2019-02-28T02:21:40.976Z,11.38
2019-02-28T02:22:45.457Z,11.65
2019-02-28T02:23:52.955Z,11.45
2019-02-28T02:24:55.575Z,11.90
2019-02-28T02:25:59.688Z,11.05
2019-02-28T02:27:03.879Z,12.03
2019-02-28T02:28:08.255Z,10.38
2019-02-28T02:29:12.362Z,11.12
2019-02-28T02:30:18.705Z,10.95
2019-02-28T02:31:27.246Z,10.60
2019-02-28T02:32:28.696Z,11.40
2019-02-28T02:33:32.816Z,10.53
2019-02-28T02:34:36.961Z,11.05
2019-02-28T02:35:42.768Z,10.50
2019-02-28T02:36:53.123Z,11.75
2019-02-28T02:37:52.923Z,11.33
2019-02-28T02:38:57.361Z,11.48
2019-02-28T02:40:01.847Z,11.18
2019-02-28T02:41:06.261Z,11.43
2019-02-28T02:42:11.695Z,10.85
2019-02-28T02:43:15.907Z,10.78
2019-02-28T02:44:20.032Z,11.10
2019-02-28T02:45:24.579Z,11.30
2019-02-28T02:46:28.675Z,11.28
2019-02-28T02:47:32.787Z,10.63
2019-02-28T02:48:38.509Z,11.05
2019-02-28T02:49:42.704Z,12.47
2019-02-28T02:50:46.808Z,10.50
2019-02-28T02:51:50.900Z,11.10
2019-02-28T02:52:55.015Z,11.65
2019-02-28T02:53:59.458Z,11.78
2019-02-28T02:55:03.613Z,11.03
2019-02-28T02:56:07.716Z,11.15
2019-02-28T02:57:14.042Z,11.90
2019-02-28T02:58:17.643Z,10.35
2019-02-28T02:59:21.734Z,10.90
2019-02-28T03:00:25.859Z,10.20
2019-02-28T03:01:30.107Z,10.32
2019-02-28T03:02:34.343Z,11.45
2019-02-28T03:03:42.707Z,11.68
2019-02-28T03:04:44.335Z,11.15
2019-02-28T03:05:48.420Z,10.30
2019-02-28T03:06:52.512Z,11.60
2019-02-28T03:07:59.799Z,11.33
2019-02-28T03:09:02.491Z,10.78
2019-02-28T03:10:07.256Z,11.18
2019-02-28T03:11:11.447Z,11.78
2019-02-28T03:12:15.696Z,11.68
2019-02-28T03:13:20.160Z,11.30
2019-02-28T03:14:24.236Z,10.82
2019-02-28T03:15:28.587Z,10.98
2019-02-28T03:16:33.367Z,11.12
2019-02-28T03:17:38.768Z,10.93
2019-02-28T03:18:42.857Z,11.48
2019-02-28T03:19:46.999Z,10.98
2019-02-28T03:20:51.437Z,11.75
2019-02-28T03:21:55.536Z,11.18
2019-02-28T03:23:02.015Z,10.75
2019-02-28T03:24:05.492Z,10.80
2019-02-28T03:25:10.488Z,11.35
2019-02-28T03:26:14.602Z,10.88
2019-02-28T03:27:19.996Z,10.60
2019-02-28T03:28:24.339Z,11.53
2019-02-28T03:29:28.445Z,11.15
2019-02-28T03:30:33.618Z,11.05
2019-02-28T03:31:38.084Z,11.78
2019-02-28T03:32:42.825Z,11.38
2019-02-28T03:33:47.182Z,10.95
2019-02-28T03:34:58.190Z,10.82
2019-02-28T03:35:57.237Z,11.28
2019-02-28T03:37:01.355Z,11.22
2019-02-28T03:38:10.762Z,11.05
2019-02-28T03:39:11.413Z,11.40
2019-02-28T03:40:15.514Z,11.15
2019-02-28T03:41:19.743Z,11.25
2019-02-28T03:42:28.532Z,11.55
2019-02-28T03:43:29.726Z,10.78
2019-02-28T03:44:33.830Z,11.70
2019-02-28T03:45:38.175Z,10.48
2019-02-28T03:46:46.404Z,11.22
2019-02-28T03:47:48.125Z,11.57
2019-02-28T03:48:52.347Z,12.25
2019-02-28T03:49:56.443Z,11.55
2019-02-28T03:51:00.620Z,11.55
2019-02-28T03:52:06.631Z,12.53
2019-02-28T03:53:10.606Z,11.63
2019-02-28T03:54:14.712Z,10.95
2019-02-28T03:55:18.804Z,11.40
2019-02-28T03:56:22.929Z,11.35
2019-02-28T03:57:29.319Z,12.33
2019-02-28T03:58:33.182Z,12.18
2019-02-28T03:59:37.318Z,11.95
2019-02-28T04:00:41.715Z,11.08
2019-02-28T04:01:46.547Z,12.13
2019-02-28T04:02:56.625Z,12.80
2019-02-28T04:03:56.687Z,11.38
2019-02-28T04:05:01.064Z,11.22
2019-02-28T04:06:05.187Z,13.25
2019-02-28T04:07:15.556Z,11.43
2019-02-28T04:08:15.417Z,12.10
2019-02-28T04:09:19.564Z,11.15
2019-02-28T04:10:23.674Z,12.05
2019-02-28T04:11:31.152Z,11.50
2019-02-28T04:12:33.660Z,12.60
2019-02-28T04:13:37.833Z,11.83
2019-02-28T04:14:42.145Z,11.48
2019-02-28T04:16:01.433Z,12.45
2019-02-28T04:16:54.141Z,11.73
2019-02-28T04:17:57.872Z,12.30
2019-02-28T04:19:01.960Z,11.73
2019-02-28T04:20:06.142Z,10.25
2019-02-28T04:21:12.043Z,11.95
2019-02-28T04:22:19.422Z,11.50
2019-02-28T04:23:21.886Z,10.95
2019-02-28T04:24:26.072Z,12.07
2019-02-28T04:25:30.279Z,11.80
2019-02-28T04:26:34.445Z,12.23
2019-02-28T04:27:40.397Z,12.00
2019-02-28T04:28:44.392Z,11.50
2019-02-28T04:29:48.514Z,11.60
2019-02-28T04:30:52.639Z,11.00
2019-02-28T04:31:58.104Z,11.97
2019-02-28T04:33:02.521Z,11.93
2019-02-28T04:34:13.099Z,11.83
2019-02-28T04:35:12.675Z,12.58
2019-02-28T04:36:16.804Z,12.23
2019-02-28T04:37:20.916Z,11.88
2019-02-28T04:38:25.018Z,12.68
2019-02-28T04:39:29.119Z,11.78
2019-02-28T04:40:33.300Z,12.70
2019-02-28T04:41:37.406Z,12.07
2019-02-28T04:42:41.523Z,11.85
2019-02-28T04:43:45.694Z,12.53
2019-02-28T04:44:51.958Z,12.65
2019-02-28T04:45:57.698Z,13.10
2019-02-28T04:47:03.479Z,12.60
2019-02-28T04:48:07.380Z,12.90
2019-02-28T04:49:11.500Z,13.05
2019-02-28T04:50:15.593Z,13.55
2019-02-28T04:51:19.730Z,13.62
2019-02-28T04:52:23.847Z,13.75
2019-02-28T04:53:28.023Z,15.65
2019-02-28T04:54:32.129Z,16.17
2019-02-28T04:55:37.154Z,14.40
2019-02-28T04:56:45.504Z,15.63
2019-02-28T04:57:48.311Z,15.00
2019-02-28T04:58:52.656Z,15.43
2019-02-28T04:59:57.127Z,15.03
2019-02-28T05:01:01.507Z,15.28
2019-02-28T05:02:05.631Z,15.00
2019-02-28T05:03:09.715Z,14.85
2019-02-28T05:04:13.840Z,15.78
2019-02-28T05:05:18.083Z,15.85
2019-02-28T05:06:22.195Z,15.65
2019-02-28T05:07:29.692Z,15.43
2019-02-28T05:08:32.130Z,14.78
2019-02-28T05:09:36.219Z,15.50
2019-02-28T05:10:40.345Z,14.63
2019-02-28T05:11:44.495Z,14.85
2019-02-28T05:12:48.715Z,14.73
2019-02-28T05:13:52.815Z,14.93
2019-02-28T05:14:58.492Z,15.23
2019-02-28T05:16:02.708Z,15.63
2019-02-28T05:17:06.819Z,15.25
2019-02-28T05:18:10.939Z,15.10
2019-02-28T05:19:15.278Z,14.73
2019-02-28T05:20:19.379Z,15.53
2019-02-28T05:21:23.488Z,15.48
2019-02-28T05:22:28.648Z,15.65
2019-02-28T05:23:35.775Z,15.53
2019-02-28T05:24:39.386Z,15.30
2019-02-28T05:25:44.654Z,15.43
2019-02-28T05:26:48.747Z,17.80
2019-02-28T05:27:52.876Z,15.65
2019-02-28T05:28:57.055Z,16.17
2019-02-28T05:30:01.179Z,15.43
2019-02-28T05:31:05.351Z,17.42
2019-02-28T05:32:09.453Z,15.23
2019-02-28T05:33:13.819Z,15.78
2019-02-28T05:34:17.909Z,15.63
2019-02-28T05:35:25.162Z,16.27
2019-02-28T05:36:27.815Z,16.37
2019-02-28T05:37:31.932Z,16.42
2019-02-28T05:38:36.340Z,16.37
2019-02-28T05:39:40.479Z,16.10
2019-02-28T05:40:44.570Z,16.45
2019-02-28T05:41:49.466Z,17.62
2019-02-28T05:42:54.711Z,16.67
2019-02-28T05:44:00.065Z,17.95
2019-02-28T05:45:04.499Z,18.82
2019-02-28T05:46:08.591Z,18.82
2019-02-28T05:47:12.771Z,18.60
2019-02-28T05:48:16.899Z,19.85
2019-02-28T05:49:21.269Z,19.80
2019-02-28T05:50:25.371Z,19.98
2019-02-28T05:51:29.487Z,20.55
2019-02-28T05:52:34.409Z,18.27
2019-02-28T05:53:41.250Z,19.30
2019-02-28T05:54:47.188Z,19.42
2019-02-28T05:55:50.345Z,20.62
2019-02-28T05:56:54.507Z,21.12
2019-02-28T05:57:58.711Z,21.25
2019-02-28T05:59:02.826Z,21.87
2019-02-28T06:00:07.487Z,20.37
2019-02-28T06:01:11.917Z,19.98
2019-02-28T06:02:18.994Z,19.12
2019-02-28T06:03:22.617Z,18.02
2019-02-28T06:04:26.749Z,19.52
2019-02-28T06:05:30.894Z,20.65
2019-02-28T06:06:34.989Z,19.12
2019-02-28T06:07:39.106Z,19.92
2019-02-28T06:08:43.472Z,18.75
2019-02-28T06:09:48.675Z,18.23
2019-02-28T06:10:56.062Z,20.02
2019-02-28T06:11:59.269Z,18.15
2019-02-28T06:13:03.375Z,18.98
2019-02-28T06:14:07.459Z,18.92
2019-02-28T06:15:11.600Z,19.75
2019-02-28T06:16:16.246Z,18.15
2019-02-28T06:17:20.821Z,19.48
2019-02-28T06:18:32.705Z,18.27
2019-02-28T06:19:34.782Z,18.77
2019-02-28T06:20:38.889Z,19.23
2019-02-28T06:21:42.984Z,20.00
2019-02-28T06:22:47.168Z,20.05
2019-02-28T06:23:51.286Z,19.57
2019-02-28T06:24:55.400Z,20.50
2019-02-28T06:26:04.356Z,21.07
2019-02-28T06:27:08.524Z,21.70
2019-02-28T06:28:21.313Z,21.30
2019-02-28T06:29:25.410Z,21.52
2019-02-28T06:30:29.567Z,22.00
2019-02-28T06:31:34.463Z,23.62
2019-02-28T06:32:38.997Z,21.82
2019-02-28T06:33:43.692Z,21.87
2019-02-28T06:34:48.098Z,22.60
2019-02-28T06:35:53.584Z,25.32
2019-02-28T06:37:00.382Z,23.52
2019-02-28T06:38:06.819Z,25.68
2019-02-28T06:39:11.937Z,26.40
2019-02-28T06:40:16.128Z,24.95
2019-02-28T06:41:20.252Z,24.00
2019-02-28T06:42:24.412Z,25.90
2019-02-28T06:43:28.508Z,23.80
2019-02-28T06:44:34.505Z,23.02
2019-02-28T06:45:38.728Z,22.45
2019-02-28T06:46:43.107Z,24.60
2019-02-28T06:47:49.585Z,25.05
2019-02-28T06:48:54.300Z,24.10
2019-02-28T06:49:58.444Z,23.67
2019-02-28T06:51:02.667Z,23.32
2019-02-28T06:52:07.163Z,22.05
2019-02-28T06:53:11.266Z,23.45
2019-02-28T06:54:15.631Z,22.52
2019-02-28T06:55:23.292Z,21.82
2019-02-28T06:56:28.107Z,22.87
2019-02-28T06:57:33.080Z,22.77
2019-02-28T06:58:37.545Z,21.80
2019-02-28T06:59:42.186Z,22.25
2019-02-28T07:00:47.346Z,21.90
2019-02-28T07:01:56.552Z,21.50
2019-02-28T07:02:58.095Z,21.48
2019-02-28T07:04:02.189Z,19.92
2019-02-28T07:05:06.544Z,20.62
2019-02-28T07:06:11.952Z,19.98
2019-02-28T07:07:16.631Z,19.25
2019-02-28T07:08:24.935Z,19.15
2019-02-28T07:09:26.533Z,18.00
2019-02-28T07:10:31.655Z,18.65
2019-02-28T07:11:35.791Z,17.52
2019-02-28T07:12:39.990Z,19.32
2019-02-28T07:13:44.127Z,17.98
2019-02-28T07:14:50.791Z,18.12
2019-02-28T07:15:55.559Z,18.12
2019-02-28T07:17:02.092Z,16.52
2019-02-28T07:18:06.189Z,17.10
2019-02-28T07:19:10.284Z,16.65
2019-02-28T07:20:14.629Z,17.15
2019-02-28T07:21:18.787Z,16.32
2019-02-28T07:22:23.167Z,16.82
2019-02-28T07:23:29.927Z,15.45
2019-02-28T07:24:37.217Z,17.00
2019-02-28T07:25:39.248Z,16.17
2019-02-28T07:26:43.363Z,17.30
2019-02-28T07:27:47.480Z,16.97
2019-02-28T07:28:51.605Z,15.65
2019-02-28T07:29:55.756Z,16.05
2019-02-28T07:31:00.501Z,16.60
2019-02-28T07:32:07.403Z,16.57
2019-02-28T07:33:11.568Z,16.95
2019-02-28T07:34:19.590Z,17.25
2019-02-28T07:35:21.490Z,18.15
2019-02-28T07:36:25.594Z,17.75
2019-02-28T07:37:29.704Z,18.87
2019-02-28T07:38:34.101Z,19.62
2019-02-28T07:39:40.277Z,18.35
2019-02-28T07:40:45.705Z,18.60
2019-02-28T07:41:49.947Z,18.82
2019-02-28T07:42:54.077Z,18.10
2019-02-28T07:43:59.065Z,17.62
2019-02-28T07:45:03.347Z,17.98
2019-02-28T07:46:08.724Z,18.45
2019-02-28T07:47:17.142Z,17.82
2019-02-28T07:48:18.825Z,18.90
2019-02-28T07:49:25.675Z,17.85
2019-02-28T07:50:28.742Z,19.17
2019-02-28T07:51:32.919Z,17.95
2019-02-28T07:52:37.042Z,18.75
2019-02-28T07:53:42.075Z,19.20
2019-02-28T07:54:47.451Z,20.72
2019-02-28T07:55:52.038Z,20.52
2019-02-28T07:56:58.403Z,20.20
2019-02-28T07:58:02.581Z,19.55
2019-02-28T07:59:08.671Z,19.57
2019-02-28T08:00:18.225Z,19.23
2019-02-28T08:01:24.444Z,19.32
2019-02-28T08:02:27.118Z,19.57
2019-02-28T08:03:31.311Z,20.45
2019-02-28T08:04:35.528Z,20.88
2019-02-28T08:05:40.710Z,19.02
2019-02-28T08:06:44.835Z,18.95
2019-02-28T08:07:52.646Z,19.85
2019-02-28T08:08:58.036Z,20.68
2019-02-28T08:10:02.172Z,18.92
2019-02-28T08:11:06.327Z,19.42
2019-02-28T08:12:12.159Z,19.32
2019-02-28T08:13:17.951Z,20.02
2019-02-28T08:14:22.128Z,20.12
2019-02-28T08:15:26.227Z,20.43
2019-02-28T08:16:30.592Z,20.82
2019-02-28T08:17:36.243Z,21.37
2019-02-28T08:18:40.439Z,23.77
2019-02-28T08:19:44.583Z,23.80
2019-02-28T08:20:48.719Z,23.27
2019-02-28T08:21:52.880Z,23.77
2019-02-28T08:22:57.798Z,23.20
2019-02-28T08:24:02.503Z,21.23
2019-02-28T08:25:08.816Z,21.25
2019-02-28T08:26:15.456Z,21.62
2019-02-28T08:27:18.796Z,20.37
2019-02-28T08:28:25.076Z,20.72
2019-02-28T08:29:29.207Z,20.32
2019-02-28T08:30:33.378Z,21.62
2019-02-28T08:31:37.498Z,21.70
2019-02-28T08:32:43.937Z,22.02
2019-02-28T08:33:49.105Z,20.90
2019-02-28T08:34:58.495Z,20.48
2019-02-28T08:35:59.274Z,22.37
2019-02-28T08:37:03.372Z,21.50
2019-02-28T08:38:07.468Z,19.95
2019-02-28T08:39:16.139Z,21.17
2019-02-28T08:40:20.980Z,20.32
2019-02-28T08:41:25.709Z,20.50
2019-02-28T08:42:30.553Z,20.27
2019-02-28T08:43:39.105Z,20.00
2019-02-28T08:44:43.629Z,19.82
2019-02-28T08:45:50.823Z,19.87
2019-02-28T08:47:03.154Z,17.90
2019-02-28T08:48:46.422Z,19.07
2019-02-28T08:50:32.444Z,19.17
2019-02-28T08:51:45.717Z,18.90
2019-02-28T08:52:51.629Z,18.70
2019-02-28T08:53:56.473Z,19.17
2019-02-28T08:55:03.043Z,21.48
2019-02-28T08:56:11.036Z,20.17
2019-02-28T08:57:17.689Z,19.67
2019-02-28T08:58:24.562Z,20.60
2019-02-28T08:59:42.022Z,20.12
2019-02-28T09:00:54.552Z,18.35
2019-02-28T09:02:02.976Z,17.90
2019-02-28T09:03:14.200Z,17.00
2019-02-28T09:04:18.756Z,17.17
2019-02-28T09:05:35.971Z,17.70
2019-02-28T09:06:42.800Z,16.35
2019-02-28T09:07:52.937Z,18.12
2019-02-28T09:09:02.226Z,18.95
2019-02-28T09:10:11.777Z,18.15
2019-02-28T09:11:20.626Z,17.45
2019-02-28T09:12:23.128Z,17.70
2019-02-28T09:13:27.620Z,18.15
2019-02-28T09:14:32.245Z,18.95
2019-02-28T09:15:36.810Z,17.65
2019-02-28T09:16:49.278Z,18.67
2019-02-28T09:17:58.167Z,17.87
2019-02-28T09:19:02.978Z,18.90
2019-02-28T09:20:10.504Z,18.32
2019-02-28T09:21:18.404Z,19.52
2019-02-28T09:22:39.957Z,18.12
2019-02-28T09:23:47.346Z,19.12
2019-02-28T09:24:51.923Z,19.45
2019-02-28T09:26:10.481Z,18.73
2019-02-28T09:27:15.298Z,18.17
2019-02-28T09:28:20.977Z,18.90
2019-02-28T09:29:28.073Z,18.87
2019-02-28T09:30:41.957Z,19.17
2019-02-28T09:31:56.221Z,17.82
2019-02-28T09:33:01.994Z,19.17
2019-02-28T09:34:06.528Z,19.15
2019-02-28T09:35:14.408Z,18.67
2019-02-28T09:36:23.972Z,18.73
2019-02-28T09:37:34.555Z,18.82
2019-02-28T09:38:39.169Z,20.37
2019-02-28T09:39:45.263Z,20.75
2019-02-28T09:40:51.873Z,18.45
2019-02-28T09:41:58.706Z,19.02
2019-02-28T09:43:04.817Z,19.82
2019-02-28T09:44:15.069Z,20.15
2019-02-28T09:45:25.964Z,19.57
2019-02-28T09:46:32.918Z,19.15
2019-02-28T09:47:40.973Z,20.25
2019-02-28T09:48:47.466Z,19.37
2019-02-28T09:49:59.533Z,19.62
2019-02-28T09:51:07.996Z,22.15
2019-02-28T09:52:12.452Z,21.25
2019-02-28T09:53:22.497Z,19.65
2019-02-28T09:54:32.163Z,20.23
2019-02-28T09:55:45.376Z,19.75
2019-02-28T09:56:56.052Z,20.32
2019-02-28T09:58:02.559Z,21.77
2019-02-28T09:59:11.831Z,20.35
2019-02-28T10:00:27.607Z,21.65
2019-02-28T10:01:32.186Z,20.82
2019-02-28T10:02:45.581Z,23.52
2019-02-28T10:03:55.338Z,21.60
2019-02-28T10:05:07.477Z,19.95
2019-02-28T10:06:17.566Z,20.57
2019-02-28T10:07:23.334Z,21.23
2019-02-28T10:08:33.595Z,22.60
2019-02-28T10:09:44.358Z,21.45
2019-02-28T10:10:52.379Z,20.48
2019-02-28T10:11:58.870Z,21.23
2019-02-28T10:13:06.474Z,21.82
2019-02-28T10:14:17.065Z,20.10
2019-02-28T10:15:24.667Z,23.55
2019-02-28T10:16:34.782Z,21.15
2019-02-28T10:17:44.376Z,22.20
2019-02-28T10:18:48.882Z,23.27
2019-02-28T10:19:53.458Z,22.52
2019-02-28T10:21:02.754Z,25.85
2019-02-28T10:22:10.157Z,22.25
2019-02-28T10:23:18.384Z,22.30
2019-02-28T10:24:22.056Z,23.55
2019-02-28T10:25:26.161Z,24.77
2019-02-28T10:26:30.308Z,24.15
2019-02-28T10:27:36.725Z,22.77
2019-02-28T10:28:40.914Z,23.83
2019-02-28T10:29:45.029Z,22.20
2019-02-28T10:30:50.150Z,23.07
2019-02-28T10:31:54.930Z,22.20
2019-02-28T10:32:59.057Z,24.47
2019-02-28T10:34:03.179Z,24.20
2019-02-28T10:35:07.683Z,24.98
2019-02-28T10:36:13.014Z,23.18
2019-02-28T10:37:19.314Z,22.70
2019-02-28T10:38:23.494Z,23.07
2019-02-28T10:39:27.599Z,21.70
2019-02-28T10:40:31.718Z,39.13
2019-02-28T10:41:35.918Z,26.77
2019-02-28T10:42:41.281Z,23.85
2019-02-28T10:43:49.925Z,24.02
2019-02-28T10:44:51.443Z,20.50
2019-02-28T10:45:55.551Z,23.07
2019-02-28T10:46:59.652Z,20.88
2019-02-28T10:48:04.108Z,22.42
2019-02-28T10:49:08.250Z,22.17
2019-02-28T10:50:14.975Z,22.20
2019-02-28T10:51:19.094Z,20.48
2019-02-28T10:52:23.529Z,20.02
2019-02-28T10:53:29.615Z,23.35
2019-02-28T10:54:33.888Z,22.10
2019-02-28T10:55:38.004Z,21.17
2019-02-28T10:56:42.186Z,22.13
2019-02-28T10:57:46.301Z,22.17
2019-02-28T10:58:51.051Z,22.15
2019-02-28T10:59:58.170Z,21.80
2019-02-28T11:01:01.188Z,20.50
2019-02-28T11:02:05.286Z,20.40
2019-02-28T11:03:09.389Z,23.10
2019-02-28T11:04:13.475Z,21.65
2019-02-28T11:05:20.126Z,25.27
2019-02-28T11:06:25.272Z,22.02
2019-02-28T11:07:30.067Z,21.33
2019-02-28T11:08:34.184Z,19.75
2019-02-28T11:09:38.375Z,19.37
2019-02-28T11:10:42.706Z,18.67
2019-02-28T11:11:46.820Z,20.80
2019-02-28T11:12:50.985Z,18.45
2019-02-28T11:13:55.067Z,18.98
2019-02-28T11:14:59.222Z,19.15
2019-02-28T11:16:03.370Z,17.85
2019-02-28T11:17:13.408Z,16.82
2019-02-28T11:18:13.307Z,16.32
2019-02-28T11:19:19.430Z,17.90
2019-02-28T11:20:26.229Z,21.00
2019-02-28T11:21:30.406Z,19.40
2019-02-28T11:22:36.496Z,19.42
2019-02-28T11:23:40.539Z,19.32
2019-02-28T11:24:44.667Z,17.90
2019-02-28T11:25:48.797Z,18.60
2019-02-28T11:26:53.025Z,17.98
2019-02-28T11:27:57.259Z,18.85
2019-02-28T11:29:03.164Z,17.65
2019-02-28T11:30:09.980Z,17.65
2019-02-28T11:31:13.263Z,18.98
2019-02-28T11:32:17.378Z,18.35
2019-02-28T11:33:22.862Z,18.67
2019-02-28T11:34:27.105Z,17.65
2019-02-28T11:35:31.488Z,18.37
2019-02-28T11:36:35.806Z,17.75
2019-02-28T11:37:42.364Z,17.80
2019-02-28T11:38:45.968Z,18.37
2019-02-28T11:39:50.175Z,18.20
2019-02-28T11:40:57.323Z,18.27
2019-02-28T11:42:00.164Z,18.35
2019-02-28T11:43:04.481Z,18.05
2019-02-28T11:44:09.294Z,18.27
2019-02-28T11:45:18.516Z,18.05
2019-02-28T11:46:22.479Z,19.73
2019-02-28T11:47:26.712Z,19.23
2019-02-28T11:48:30.844Z,18.80
2019-02-28T11:49:34.986Z,19.23
2019-02-28T11:50:42.425Z,18.98
2019-02-28T11:51:44.911Z,17.30
2019-02-28T11:52:49.034Z,16.57
2019-02-28T11:53:53.147Z,17.55
2019-02-28T11:54:57.256Z,16.90
2019-02-28T11:56:01.338Z,17.42
2019-02-28T11:57:06.821Z,17.65
2019-02-28T11:58:16.320Z,17.60
2019-02-28T11:59:16.932Z,17.25
2019-02-28T12:00:27.555Z,18.02
2019-02-28T12:01:31.660Z,17.85
2019-02-28T12:02:35.756Z,19.55
2019-02-28T12:03:39.874Z,16.90
2019-02-28T12:04:44.004Z,18.55
2019-02-28T12:05:50.620Z,19.02
2019-02-28T12:06:53.915Z,18.75
2019-02-28T12:07:58.012Z,17.30
2019-02-28T12:09:02.123Z,19.37
2019-02-28T12:10:06.325Z,17.73
2019-02-28T12:11:10.487Z,17.37
2019-02-28T12:12:14.630Z,17.52
2019-02-28T12:13:19.594Z,19.75
2019-02-28T12:14:26.443Z,19.55
2019-02-28T12:15:30.625Z,20.70
2019-02-28T12:16:35.323Z,20.52
2019-02-28T12:17:45.646Z,19.15
2019-02-28T12:18:54.562Z,19.27
2019-02-28T12:20:03.755Z,19.05
2019-02-28T12:21:08.777Z,18.65
2019-02-28T12:22:17.233Z,20.12
2019-02-28T12:23:23.487Z,18.80
2019-02-28T12:24:40.007Z,18.60
2019-02-28T12:25:44.462Z,20.30
2019-02-28T12:26:52.724Z,18.80
2019-02-28T12:28:02.594Z,17.45
2019-02-28T12:29:14.890Z,20.05
2019-02-28T12:30:27.239Z,20.15
2019-02-28T12:31:49.567Z,19.65
2019-02-28T12:32:55.244Z,21.37
2019-02-28T12:34:02.227Z,18.75
2019-02-28T12:35:18.945Z,21.65
2019-02-28T12:36:27.633Z,20.37
2019-02-28T12:37:36.466Z,21.87
2019-02-28T12:38:46.057Z,21.68
2019-02-28T12:39:50.477Z,21.35
2019-02-28T12:40:58.030Z,21.85
2019-02-28T12:42:06.739Z,22.70
2019-02-28T12:43:13.463Z,26.02
2019-02-28T12:44:20.573Z,25.90
2019-02-28T12:45:32.001Z,24.98
2019-02-28T12:46:49.801Z,25.50
2019-02-28T12:47:56.768Z,30.32
2019-02-28T12:49:15.780Z,29.80
2019-02-28T12:50:24.301Z,21.95
2019-02-28T12:51:30.905Z,21.25
2019-02-28T12:52:51.187Z,31.82
2019-02-28T12:53:59.233Z,29.02
2019-02-28T12:55:14.166Z,34.45
2019-02-28T12:56:22.243Z,28.75
2019-02-28T12:57:29.996Z,29.80
2019-02-28T12:58:38.969Z,28.62
2019-02-28T13:00:00.029Z,26.27
2019-02-28T13:01:00.015Z,31.10
2019-02-28T13:02:08.422Z,30.10
2019-02-28T13:03:19.210Z,45.70
2019-02-28T13:04:32.600Z,36.45
2019-02-28T13:05:37.944Z,30.77
2019-02-28T13:06:42.360Z,31.82
2019-02-28T13:07:50.663Z,30.97
2019-02-28T13:09:00.817Z,30.57
2019-02-28T13:10:15.811Z,23.52
2019-02-28T13:11:20.252Z,31.12
2019-02-28T13:12:32.213Z,27.02
2019-02-28T13:13:39.753Z,26.48
2019-02-28T13:14:58.834Z,24.95
2019-02-28T13:16:05.210Z,25.40
2019-02-28T13:17:18.848Z,24.37
2019-02-28T13:18:26.884Z,24.32
2019-02-28T13:19:40.681Z,24.95
2019-02-28T13:20:53.030Z,24.43
2019-02-28T13:22:10.675Z,24.52
2019-02-28T13:23:18.577Z,25.70
2019-02-28T13:24:33.158Z,22.00
2019-02-28T13:25:39.983Z,21.30
2019-02-28T13:26:47.570Z,21.97
2019-02-28T13:27:55.685Z,21.90
2019-02-28T13:29:05.555Z,23.22
2019-02-28T13:30:26.507Z,23.55
2019-02-28T13:31:35.574Z,22.62
2019-02-28T13:32:46.031Z,22.22
2019-02-28T13:33:53.709Z,23.42
2019-02-28T13:35:02.975Z,23.45
2019-02-28T13:36:18.231Z,22.48
2019-02-28T13:37:23.509Z,20.95
2019-02-28T13:38:32.284Z,21.02
2019-02-28T13:39:41.095Z,21.70
2019-02-28T13:40:50.349Z,21.68
2019-02-28T13:42:09.414Z,20.62
2019-02-28T13:43:28.706Z,22.30
2019-02-28T13:44:38.293Z,22.05
2019-02-28T13:46:07.967Z,23.10
2019-02-28T13:47:24.656Z,20.85
2019-02-28T13:48:39.546Z,23.90
2019-02-28T13:49:49.815Z,22.62
2019-02-28T13:51:08.029Z,21.95
2019-02-28T13:52:20.554Z,20.55
2019-02-28T13:53:27.155Z,20.82
2019-02-28T13:54:34.555Z,19.62
2019-02-28T13:55:59.540Z,22.85
2019-02-28T13:57:08.160Z,21.90
2019-02-28T13:58:10.536Z,20.25
2019-02-28T13:59:15.526Z,20.32
2019-02-28T14:00:24.595Z,20.30
2019-02-28T14:01:28.726Z,18.98
2019-02-28T14:02:33.792Z,18.02
2019-02-28T14:03:38.330Z,23.38
2019-02-28T14:04:42.484Z,20.77
2019-02-28T14:05:46.731Z,21.30
2019-02-28T14:06:52.507Z,18.87
2019-02-28T14:07:56.767Z,17.90
2019-02-28T14:09:00.867Z,17.32